createdAt,value
2023-05-18T00:01:54.075Z,102164.56
2023-05-18T00:04:24.120Z,102165.50
2023-05-18T00:06:56.735Z,102170.09
2023-05-18T00:09:25.395Z,102170.31
2023-05-18T00:11:54.646Z,102172.22
2023-05-18T00:14:22.733Z,102169.59
2023-05-18T00:16:50.892Z,102173.09
2023-05-18T00:19:20.351Z,102183.81
2023-05-18T00:21:49.431Z,102171.69
2023-05-18T00:24:18.142Z,102173.50
2023-05-18T00:26:49.093Z,102170.00
2023-05-18T00:29:18.371Z,102174.34
2023-05-18T00:31:47.963Z,102178.28
2023-05-18T00:34:17.133Z,102175.03
2023-05-18T00:36:45.035Z,102175.34
2023-05-18T00:39:13.166Z,102172.03
2023-05-18T00:41:41.089Z,102179.72
2023-05-18T00:44:08.989Z,102186.81
2023-05-18T00:46:38.235Z,102183.66
2023-05-18T00:49:06.486Z,102189.16
2023-05-18T00:51:35.564Z,102186.41
2023-05-18T00:54:03.675Z,102190.03
2023-05-18T00:56:33.990Z,102202.41
2023-05-18T00:59:03.255Z,102192.88
2023-05-18T01:01:34.411Z,102196.59
2023-05-18T01:04:04.605Z,102204.66
2023-05-18T01:06:35.847Z,102202.22
2023-05-18T01:09:06.747Z,102204.88
2023-05-18T01:11:41.413Z,102203.41
2023-05-18T01:14:15.302Z,102210.50
2023-05-18T01:16:48.731Z,102209.84
2023-05-18T01:19:36.019Z,102206.56
2023-05-18T01:22:09.330Z,102214.63
2023-05-18T01:24:42.815Z,102214.84
2023-05-18T01:27:14.237Z,102219.06
2023-05-18T01:29:42.567Z,102219.94
2023-05-18T01:32:10.706Z,102222.69
2023-05-18T01:34:38.579Z,102218.97
2023-05-18T01:37:06.689Z,102223.53
2023-05-18T01:39:34.591Z,102215.59
2023-05-18T01:42:04.669Z,102216.53
2023-05-18T01:44:38.150Z,102228.00
2023-05-18T01:47:12.022Z,102225.44
2023-05-18T01:49:44.519Z,102223.31
2023-05-18T01:52:17.417Z,102227.88
2023-05-18T01:54:47.934Z,102221.63
2023-05-18T01:57:16.369Z,102225.03
2023-05-18T01:59:48.916Z,102225.97
2023-05-18T02:02:17.399Z,102223.22
2023-05-18T02:04:45.366Z,102230.31
2023-05-18T02:07:13.338Z,102223.53
2023-05-18T02:09:41.975Z,102228.63
2023-05-18T02:12:09.970Z,102219.94
2023-05-18T02:14:38.044Z,102222.47
2023-05-18T02:17:08.359Z,102228.84
2023-05-18T02:19:38.346Z,102222.91
2023-05-18T02:22:06.857Z,102227.34
2023-05-18T02:24:34.862Z,102229.28
2023-05-18T02:27:04.600Z,102231.94
2023-05-18T02:29:32.479Z,102236.47
2023-05-18T02:32:00.455Z,102235.53
2023-05-18T02:34:32.812Z,102229.47
2023-05-18T02:37:03.802Z,102235.81
2023-05-18T02:39:33.834Z,102231.56
2023-05-18T02:42:01.836Z,102234.13
2023-05-18T02:44:29.806Z,102237.19
2023-05-18T02:46:57.949Z,102239.94
2023-05-18T02:49:25.805Z,102241.97
2023-05-18T02:51:56.968Z,102239.59
2023-05-18T02:54:24.934Z,102237.25
2023-05-18T02:56:56.715Z,102234.19
2023-05-18T02:59:33.927Z,102239.78
2023-05-18T03:02:01.914Z,102235.72
2023-05-18T03:04:30.293Z,102244.63
2023-05-18T03:07:02.680Z,102238.59
2023-05-18T03:09:30.983Z,102239.94
2023-05-18T03:11:58.976Z,102241.84
2023-05-18T03:14:26.890Z,102242.31
2023-05-18T03:16:57.911Z,102248.25
2023-05-18T03:19:27.008Z,102244.84
2023-05-18T03:21:55.071Z,102247.50
2023-05-18T03:24:26.175Z,102249.19
2023-05-18T03:26:55.114Z,102245.06
2023-05-18T03:29:23.242Z,102238.59
2023-05-18T03:31:52.055Z,102242.00
2023-05-18T03:34:20.257Z,102242.09
2023-05-18T03:36:48.203Z,102252.47
2023-05-18T03:39:16.376Z,102250.34
2023-05-18T03:41:45.997Z,102248.44
2023-05-18T03:44:13.933Z,102263.28
2023-05-18T03:46:42.177Z,102251.84
2023-05-18T03:49:10.416Z,102254.59
2023-05-18T03:51:42.608Z,102261.38
2023-05-18T03:54:10.603Z,102260.31
2023-05-18T03:56:38.472Z,102267.75
2023-05-18T03:59:08.125Z,102262.97
2023-05-18T04:01:36.165Z,102265.63
2023-05-18T04:04:04.399Z,102266.69
2023-05-18T04:06:35.299Z,102258.25
2023-05-18T04:09:04.590Z,102270.44
2023-05-18T04:11:32.536Z,102275.44
2023-05-18T04:14:01.389Z,102280.00
2023-05-18T04:16:31.185Z,102283.06
2023-05-18T04:19:00.421Z,102287.19
2023-05-18T04:21:33.806Z,102288.03
2023-05-18T04:24:03.516Z,102290.91
2023-05-18T04:26:31.562Z,102293.25
2023-05-18T04:29:00.255Z,102291.69
2023-05-18T04:31:29.826Z,102295.75
2023-05-18T04:33:58.851Z,102297.88
2023-05-18T04:36:30.813Z,102287.81
2023-05-18T04:38:59.745Z,102300.03
2023-05-18T04:41:28.586Z,102296.97
2023-05-18T04:43:56.481Z,102301.09
2023-05-18T04:46:25.032Z,102302.09
2023-05-18T04:48:58.037Z,102305.06
2023-05-18T04:51:26.180Z,102305.28
2023-05-18T04:53:55.673Z,102310.28
2023-05-18T04:56:23.690Z,102305.72
2023-05-18T04:58:51.569Z,102309.13
2023-05-18T05:01:19.829Z,102314.13
2023-05-18T05:03:48.142Z,102307.84
2023-05-18T05:06:17.485Z,102306.56
2023-05-18T05:08:45.498Z,102308.50
2023-05-18T05:11:13.375Z,102306.56
2023-05-18T05:13:41.712Z,102299.97
2023-05-18T05:16:09.676Z,102310.19
2023-05-18T05:18:37.613Z,102304.44
2023-05-18T05:21:06.409Z,102306.47
2023-05-18T05:23:35.777Z,102307.28
2023-05-18T05:26:03.980Z,102312.94
2023-05-18T05:28:32.810Z,102307.28
2023-05-18T05:31:00.861Z,102311.50
2023-05-18T05:33:28.788Z,102316.06
2023-05-18T05:35:57.560Z,102319.59
2023-05-18T05:38:25.734Z,102312.84
2023-05-18T05:40:55.082Z,102326.00
2023-05-18T05:43:23.007Z,102325.75
2023-05-18T05:45:51.549Z,102324.88
2023-05-18T05:48:19.909Z,102328.38
2023-05-18T05:50:48.185Z,102330.81
2023-05-18T05:53:17.923Z,102331.41
2023-05-18T05:55:46.524Z,102337.47
2023-05-18T05:58:18.624Z,102331.97
2023-05-18T06:00:56.931Z,102332.34
2023-05-18T06:03:24.880Z,102338.38
2023-05-18T06:05:52.805Z,102329.81
2023-05-18T06:08:24.163Z,102336.34
2023-05-18T06:10:52.440Z,102326.84
2023-05-18T06:13:21.718Z,102332.16
2023-05-18T06:15:52.154Z,102330.66
2023-05-18T06:18:20.154Z,102333.84
2023-05-18T06:20:49.774Z,102336.94
2023-05-18T06:23:22.479Z,102335.56
2023-05-18T06:26:10.911Z,102334.13
2023-05-18T06:28:40.143Z,102333.88
2023-05-18T06:31:27.358Z,102335.81
2023-05-18T06:34:02.665Z,102339.72
2023-05-18T06:36:31.862Z,102340.13
2023-05-18T06:38:59.786Z,102333.47
2023-05-18T06:41:27.826Z,102337.50
2023-05-18T06:44:00.234Z,102340.66
2023-05-18T06:46:36.068Z,102338.34
2023-05-18T06:49:09.448Z,102336.06
2023-05-18T06:51:37.390Z,102336.88
2023-05-18T06:54:05.644Z,102341.19
2023-05-18T06:56:33.559Z,102346.53
2023-05-18T06:59:02.866Z,102342.81
2023-05-18T07:01:31.040Z,102336.25
2023-05-18T07:04:02.492Z,102336.13
2023-05-18T07:06:31.151Z,102335.28
2023-05-18T07:08:59.108Z,102338.31
2023-05-18T07:11:29.528Z,102340.56
2023-05-18T07:13:57.678Z,102334.38
2023-05-18T07:16:28.724Z,102330.72
2023-05-18T07:18:57.988Z,102333.03
2023-05-18T07:21:26.204Z,102320.72
2023-05-18T07:23:54.174Z,102326.91
2023-05-18T07:26:22.699Z,102327.56
2023-05-18T07:28:51.333Z,102322.78
2023-05-18T07:31:21.497Z,102320.66
2023-05-18T07:33:50.986Z,102314.34
2023-05-18T07:36:18.865Z,102311.97
2023-05-18T07:38:46.736Z,102312.53
2023-05-18T07:41:14.596Z,102318.41
2023-05-18T07:43:42.487Z,102313.91
2023-05-18T07:46:10.430Z,102320.50
2023-05-18T07:48:40.556Z,102318.72
2023-05-18T07:51:10.379Z,102322.22
2023-05-18T07:53:38.423Z,102313.97
2023-05-18T07:56:07.476Z,102320.75
2023-05-18T07:58:35.466Z,102314.72
2023-05-18T08:01:03.798Z,102320.09
2023-05-18T08:03:31.998Z,102327.66
2023-05-18T08:06:00.244Z,102335.72
2023-05-18T08:08:29.871Z,102332.09
2023-05-18T08:10:58.210Z,102334.75
2023-05-18T08:13:26.624Z,102340.03
2023-05-18T08:16:07.227Z,102341.78
2023-05-18T08:18:38.831Z,102335.53
2023-05-18T08:21:09.944Z,102337.38
2023-05-18T08:23:40.050Z,102345.78
2023-05-18T08:26:09.046Z,102335.19
2023-05-18T08:28:37.710Z,102333.22
2023-05-18T08:31:06.176Z,102336.94
2023-05-18T08:33:34.267Z,102328.34
2023-05-18T08:36:02.155Z,102337.34
2023-05-18T08:38:30.027Z,102327.00
2023-05-18T08:41:06.966Z,102332.56
2023-05-18T08:43:38.897Z,102329.34
2023-05-18T08:46:11.713Z,102330.28
2023-05-18T08:48:40.098Z,102331.22
2023-05-18T08:51:09.555Z,102332.59
2023-05-18T08:53:39.201Z,102328.97
2023-05-18T08:56:09.932Z,102332.59
2023-05-18T08:58:45.212Z,102327.59
2023-05-18T09:01:13.281Z,102331.31
2023-05-18T09:03:41.816Z,102330.31
2023-05-18T09:06:10.354Z,102329.84
2023-05-18T09:08:38.914Z,102331.91
2023-05-18T09:11:08.343Z,102331.53
2023-05-18T09:13:36.339Z,102337.78
2023-05-18T09:16:04.359Z,102339.81
2023-05-18T09:18:32.355Z,102340.13
2023-05-18T09:21:00.210Z,102335.00
2023-05-18T09:23:29.509Z,102343.28
2023-05-18T09:25:57.914Z,102334.13
2023-05-18T09:28:34.285Z,102330.72
2023-05-18T09:31:02.212Z,102319.22
2023-05-18T09:33:35.174Z,102315.88
2023-05-18T09:36:03.227Z,102320.38
2023-05-18T09:38:31.176Z,102319.84
2023-05-18T09:41:00.932Z,102312.16
2023-05-18T09:43:30.135Z,102314.47
2023-05-18T09:45:58.038Z,102307.00
2023-05-18T09:48:27.438Z,102307.28
2023-05-18T09:50:55.352Z,102302.22
2023-05-18T09:53:23.362Z,102306.06
2023-05-18T09:55:51.507Z,102307.19
2023-05-18T09:58:19.528Z,102309.72
2023-05-18T10:00:51.698Z,102311.22
2023-05-18T10:03:21.592Z,102313.66
2023-05-18T10:05:49.834Z,102308.22
2023-05-18T10:08:17.987Z,102307.47
2023-05-18T10:10:47.049Z,102301.88
2023-05-18T10:13:18.133Z,102314.69
2023-05-18T10:15:54.166Z,102304.81
2023-05-18T10:18:23.915Z,102308.72
2023-05-18T10:20:53.192Z,102298.38
2023-05-18T10:23:22.005Z,102299.47
2023-05-18T10:25:51.191Z,102294.13
2023-05-18T10:28:28.506Z,102290.75
2023-05-18T10:30:59.296Z,102281.03
2023-05-18T10:33:30.003Z,102271.78
2023-05-18T10:35:58.809Z,102271.84
2023-05-18T10:38:28.467Z,102272.34
2023-05-18T10:40:57.995Z,102269.63
2023-05-18T10:43:27.881Z,102282.28
2023-05-18T10:45:58.656Z,102274.09
2023-05-18T10:48:27.791Z,102269.59
2023-05-18T10:50:56.795Z,102275.94
2023-05-18T10:53:26.733Z,102267.41
2023-05-18T10:55:55.505Z,102261.97
2023-05-18T10:58:26.250Z,102262.25
2023-05-18T11:00:58.134Z,102252.56
2023-05-18T11:03:27.366Z,102258.03
2023-05-18T11:06:06.569Z,102260.34
2023-05-18T11:08:34.654Z,102269.59
2023-05-18T11:11:04.069Z,102266.41
2023-05-18T11:13:32.736Z,102263.72
2023-05-18T11:16:09.140Z,102261.16
2023-05-18T11:18:45.745Z,102268.31
2023-05-18T11:21:21.304Z,102267.53
2023-05-18T11:24:20.452Z,102271.34
2023-05-18T11:26:49.159Z,102267.44
2023-05-18T11:29:18.191Z,102264.28
2023-05-18T11:31:48.063Z,102261.19
2023-05-18T11:34:42.109Z,102266.50
2023-05-18T11:37:10.907Z,102259.75
2023-05-18T11:39:47.902Z,102263.78
2023-05-18T11:42:20.356Z,102248.56
2023-05-18T11:44:53.290Z,102240.44
2023-05-18T11:47:24.649Z,102250.06
2023-05-18T11:49:53.128Z,102250.44
2023-05-18T11:52:21.834Z,102236.75
2023-05-18T11:54:52.255Z,102248.50
2023-05-18T11:57:21.152Z,102243.94
2023-05-18T11:59:49.862Z,102247.16
2023-05-18T12:02:24.158Z,102243.84
2023-05-18T12:04:53.716Z,102245.31
2023-05-18T12:07:22.435Z,102244.91
2023-05-18T12:09:50.609Z,102255.56
2023-05-18T12:12:20.412Z,102243.69
2023-05-18T12:14:56.290Z,102244.56
2023-05-18T12:17:25.639Z,102253.16
2023-05-18T12:19:53.510Z,102248.56
2023-05-18T12:22:21.904Z,102240.94
2023-05-18T12:24:52.620Z,102233.34
2023-05-18T12:27:22.905Z,102233.72
2023-05-18T12:29:50.954Z,102227.34
2023-05-18T12:32:18.810Z,102230.78
2023-05-18T12:34:48.132Z,102232.59
2023-05-18T12:37:16.097Z,102225.81
2023-05-18T12:39:43.980Z,102225.44
2023-05-18T12:42:12.852Z,102228.72
2023-05-18T12:44:40.702Z,102227.66
2023-05-18T12:47:08.770Z,102227.34
2023-05-18T12:49:38.234Z,102233.41
2023-05-18T12:52:15.006Z,102229.59
2023-05-18T12:54:54.881Z,102220.09
2023-05-18T12:57:25.440Z,102221.16
2023-05-18T12:59:54.362Z,102225.03
2023-05-18T13:02:33.942Z,102210.97
2023-05-18T13:05:07.287Z,102214.88
2023-05-18T13:07:40.728Z,102209.94
2023-05-18T13:10:13.794Z,102207.22
2023-05-18T13:12:46.139Z,102211.81
2023-05-18T13:15:15.921Z,102203.56
2023-05-18T13:17:58.005Z,102207.44
2023-05-18T13:20:32.081Z,102208.59
2023-05-18T13:23:03.867Z,102211.81
2023-05-18T13:25:33.017Z,102205.78
2023-05-18T13:28:01.285Z,102210.34
2023-05-18T13:30:29.292Z,102202.44
2023-05-18T13:32:58.391Z,102200.44
2023-05-18T13:35:26.312Z,102185.47
2023-05-18T13:37:54.120Z,102194.50
2023-05-18T13:40:25.326Z,102194.66
2023-05-18T13:42:53.222Z,102194.19
2023-05-18T13:45:21.727Z,102194.00
2023-05-18T13:47:53.737Z,102187.69
2023-05-18T13:50:22.880Z,102178.56
2023-05-18T13:52:50.822Z,102179.66
2023-05-18T13:55:18.790Z,102177.34
2023-05-18T13:57:48.557Z,102179.41
2023-05-18T14:00:17.454Z,102170.72
2023-05-18T14:02:46.163Z,102167.88
2023-05-18T14:05:14.846Z,102177.53
2023-05-18T14:07:44.145Z,102171.66
2023-05-18T14:10:13.424Z,102177.84
2023-05-18T14:12:42.558Z,102172.41
2023-05-18T14:15:13.780Z,102168.00
2023-05-18T14:17:42.266Z,102163.44
2023-05-18T14:20:11.040Z,102158.41
2023-05-18T14:22:38.894Z,102169.47
2023-05-18T14:25:07.455Z,102173.81
2023-05-18T14:27:35.260Z,102159.31
2023-05-18T14:30:03.149Z,102157.88
2023-05-18T14:32:32.349Z,102166.13
2023-05-18T14:35:00.139Z,102149.28
2023-05-18T14:37:28.033Z,102154.44
2023-05-18T14:39:55.986Z,102150.31
2023-05-18T14:42:23.847Z,102153.78
2023-05-18T14:44:51.683Z,102150.78
2023-05-18T14:47:19.542Z,102156.38
2023-05-18T14:49:48.699Z,102163.38
2023-05-18T14:52:16.584Z,102159.44
2023-05-18T14:54:44.466Z,102155.91
2023-05-18T14:57:12.793Z,102155.50
2023-05-18T14:59:40.741Z,102150.09
2023-05-18T15:02:08.973Z,102142.09
2023-05-18T15:04:37.376Z,102154.03
2023-05-18T15:07:06.926Z,102148.44
2023-05-18T15:09:34.723Z,102147.53
2023-05-18T15:12:02.567Z,102153.41
2023-05-18T15:14:30.334Z,102141.25
2023-05-18T15:16:58.573Z,102144.66
2023-05-18T15:19:26.833Z,102145.75
2023-05-18T15:21:54.758Z,102153.81
2023-05-18T15:24:24.878Z,102148.06
2023-05-18T15:26:52.672Z,102146.63
2023-05-18T15:29:21.556Z,102146.63
2023-05-18T15:31:51.057Z,102144.63
2023-05-18T15:34:19.085Z,102153.38
2023-05-18T15:36:47.187Z,102142.69
2023-05-18T15:39:15.042Z,102149.72
2023-05-18T15:41:44.209Z,102147.91
2023-05-18T15:44:12.270Z,102140.91
2023-05-18T15:46:40.124Z,102142.75
2023-05-18T15:49:08.211Z,102132.81
2023-05-18T15:51:36.121Z,102134.50
2023-05-18T15:54:03.940Z,102137.78
2023-05-18T15:56:31.785Z,102137.88
2023-05-18T15:59:01.000Z,102135.16
2023-05-18T16:01:28.853Z,102132.19
2023-05-18T16:03:56.918Z,102139.88
2023-05-18T16:06:24.882Z,102136.34
2023-05-18T16:08:52.828Z,102132.66
2023-05-18T16:11:21.690Z,102136.00
2023-05-18T16:13:50.181Z,102129.00
2023-05-18T16:16:19.606Z,102134.53
2023-05-18T16:18:47.563Z,102124.09
2023-05-18T16:21:15.542Z,102134.16
2023-05-18T16:23:43.348Z,102129.75
2023-05-18T16:26:11.253Z,102132.81
2023-05-18T16:28:39.424Z,102132.19
2023-05-18T16:31:10.864Z,102132.94
2023-05-18T16:33:40.155Z,102135.81
2023-05-18T16:36:08.690Z,102132.59
2023-05-18T16:38:37.691Z,102137.34
2023-05-18T16:41:06.405Z,102140.16
2023-05-18T16:43:34.417Z,102145.03
2023-05-18T16:46:02.332Z,102141.38
2023-05-18T16:48:30.235Z,102135.78
2023-05-18T16:50:59.591Z,102137.97
2023-05-18T16:53:27.718Z,102140.78
2023-05-18T16:55:55.651Z,102143.28
2023-05-18T16:58:23.478Z,102136.31
2023-05-18T17:00:51.269Z,102135.75
2023-05-18T17:03:19.263Z,102144.59
2023-05-18T17:05:47.225Z,102139.50
2023-05-18T17:08:16.417Z,102133.03
2023-05-18T17:10:44.199Z,102129.41
2023-05-18T17:13:12.070Z,102133.81
2023-05-18T17:15:39.975Z,102137.50
2023-05-18T17:18:07.919Z,102138.56
2023-05-18T17:20:35.696Z,102133.69
2023-05-18T17:23:04.565Z,102139.63
2023-05-18T17:25:34.008Z,102131.47
2023-05-18T17:28:01.893Z,102136.00
2023-05-18T17:30:29.953Z,102134.94
2023-05-18T17:32:58.058Z,102132.41
2023-05-18T17:35:26.989Z,102131.66
2023-05-18T17:37:55.747Z,102124.97
2023-05-18T17:40:23.844Z,102134.03
2023-05-18T17:42:53.206Z,102122.97
2023-05-18T17:45:21.391Z,102128.34
2023-05-18T17:47:49.329Z,102122.19
2023-05-18T17:50:17.283Z,102130.13
2023-05-18T17:52:45.104Z,102125.97
2023-05-18T17:55:12.989Z,102123.91
2023-05-18T17:57:44.937Z,102130.34
2023-05-18T18:00:15.515Z,102130.09
2023-05-18T18:02:43.508Z,102130.47
2023-05-18T18:05:11.463Z,102137.66
2023-05-18T18:07:39.612Z,102133.97
2023-05-18T18:10:08.653Z,102139.69
2023-05-18T18:12:36.553Z,102135.47
2023-05-18T18:15:04.685Z,102137.47
2023-05-18T18:17:34.513Z,102140.63
2023-05-18T18:20:02.729Z,102133.34
2023-05-18T18:22:32.236Z,102138.34
2023-05-18T18:25:01.604Z,102139.66
2023-05-18T18:27:29.594Z,102136.28
2023-05-18T18:29:57.461Z,102136.88
2023-05-18T18:32:25.521Z,102138.34
2023-05-18T18:34:55.066Z,102144.03
2023-05-18T18:37:22.984Z,102137.56
2023-05-18T18:39:51.020Z,102148.94
2023-05-18T18:42:21.457Z,102141.63
2023-05-18T18:44:52.794Z,102143.94
2023-05-18T18:47:20.994Z,102147.06
2023-05-18T18:49:48.865Z,102145.13
2023-05-18T18:52:18.454Z,102152.94
2023-05-18T18:54:46.273Z,102152.19
2023-05-18T18:57:14.193Z,102147.53
2023-05-18T18:59:42.116Z,102155.56
2023-05-18T19:02:10.136Z,102153.19
2023-05-18T19:04:38.012Z,102155.63
2023-05-18T19:07:06.097Z,102160.88
2023-05-18T19:09:36.215Z,102174.03
2023-05-18T19:12:04.402Z,102170.22
2023-05-18T19:14:32.316Z,102171.22
2023-05-18T19:17:00.277Z,102166.84
2023-05-18T19:19:28.268Z,102177.63
2023-05-18T19:21:56.237Z,102172.25
2023-05-18T19:24:24.101Z,102181.41
2023-05-18T19:26:53.396Z,102185.09
2023-05-18T19:29:21.551Z,102183.41
2023-05-18T19:31:49.491Z,102181.16
2023-05-18T19:34:17.473Z,102187.66
2023-05-18T19:36:45.416Z,102194.84
2023-05-18T19:39:13.265Z,102193.16
2023-05-18T19:41:41.142Z,102187.09
2023-05-18T19:44:10.463Z,102189.25
2023-05-18T19:46:38.777Z,102185.84
2023-05-18T19:49:07.422Z,102193.16
2023-05-18T19:51:35.310Z,102188.94
2023-05-18T19:54:03.336Z,102196.44
2023-05-18T19:56:31.314Z,102199.41
2023-05-18T19:58:59.224Z,102201.09
2023-05-18T20:01:28.549Z,102206.72
2023-05-18T20:03:59.159Z,102207.59
2023-05-18T20:06:27.958Z,102206.19
2023-05-18T20:08:55.980Z,102208.28
2023-05-18T20:11:23.917Z,102213.31
2023-05-18T20:13:52.078Z,102216.00
2023-05-18T20:16:20.379Z,102216.84
2023-05-18T20:18:49.622Z,102216.69
2023-05-18T20:21:18.499Z,102228.47
2023-05-18T20:23:47.381Z,102223.41
2023-05-18T20:26:15.684Z,102222.09
2023-05-18T20:28:43.648Z,102231.53
2023-05-18T20:31:11.637Z,102230.25
2023-05-18T20:33:39.536Z,102241.47
2023-05-18T20:36:09.116Z,102237.13
2023-05-18T20:38:38.697Z,102235.47
2023-05-18T20:41:07.955Z,102243.97
2023-05-18T20:43:37.521Z,102229.50
2023-05-18T20:46:05.761Z,102238.50
2023-05-18T20:48:35.860Z,102245.75
2023-05-18T20:51:03.712Z,102243.97
2023-05-18T20:53:33.163Z,102245.38
2023-05-18T20:56:01.526Z,102247.47
2023-05-18T20:58:29.490Z,102244.09
2023-05-18T21:00:57.394Z,102247.53
2023-05-18T21:03:25.401Z,102241.03
2023-05-18T21:05:53.399Z,102240.91
2023-05-18T21:08:21.333Z,102236.47
2023-05-18T21:10:50.570Z,102232.44
2023-05-18T21:13:19.188Z,102229.25
2023-05-18T21:15:47.111Z,102234.16
2023-05-18T21:18:15.264Z,102235.59
2023-05-18T21:20:43.227Z,102225.97
2023-05-18T21:23:11.238Z,102223.88
2023-05-18T21:25:39.201Z,102237.22
2023-05-18T21:28:08.551Z,102224.25
2023-05-18T21:30:36.557Z,102228.28
2023-05-18T21:33:04.597Z,102232.50
2023-05-18T21:35:32.586Z,102230.38
2023-05-18T21:38:00.646Z,102240.44
2023-05-18T21:40:28.524Z,102235.38
2023-05-18T21:42:57.661Z,102238.06
2023-05-18T21:45:27.026Z,102241.56
2023-05-18T21:47:54.987Z,102233.56
2023-05-18T21:50:23.166Z,102228.38
2023-05-18T21:52:51.086Z,102233.81
2023-05-18T21:55:19.102Z,102236.97
2023-05-18T21:57:47.074Z,102233.34
2023-05-18T22:00:17.965Z,102240.03
2023-05-18T22:02:47.215Z,102237.75
2023-05-18T22:05:15.214Z,102239.19
2023-05-18T22:07:43.288Z,102242.59
2023-05-18T22:10:12.467Z,102236.69
2023-05-18T22:12:41.102Z,102239.91
2023-05-18T22:15:10.507Z,102233.75
2023-05-18T22:17:38.767Z,102223.44
2023-05-18T22:20:11.210Z,102236.56
2023-05-18T22:22:41.183Z,102237.50
2023-05-18T22:25:09.979Z,102239.22
2023-05-18T22:27:38.565Z,102237.63
2023-05-18T22:30:07.085Z,102240.41
2023-05-18T22:32:35.269Z,102236.66
2023-05-18T22:35:05.146Z,102239.56
2023-05-18T22:37:34.360Z,102241.50
2023-05-18T22:40:02.360Z,102244.28
2023-05-18T22:42:30.271Z,102238.94
2023-05-18T22:44:58.092Z,102242.38
2023-05-18T22:47:28.211Z,102238.34
2023-05-18T22:49:56.062Z,102238.44
2023-05-18T22:52:24.040Z,102235.78
2023-05-18T22:54:53.245Z,102233.13
2023-05-18T22:57:21.177Z,102235.06
2023-05-18T22:59:49.140Z,102240.22
2023-05-18T23:02:17.411Z,102233.47
2023-05-18T23:04:45.291Z,102231.63
2023-05-18T23:07:13.676Z,102233.56
2023-05-18T23:09:42.290Z,102229.00
2023-05-18T23:12:11.935Z,102231.06
2023-05-18T23:14:39.832Z,102229.53
2023-05-18T23:17:08.262Z,102221.53
2023-05-18T23:19:36.231Z,102224.75
2023-05-18T23:22:05.505Z,102214.94
2023-05-18T23:24:33.585Z,102227.00
2023-05-18T23:27:01.531Z,102231.75
2023-05-18T23:29:30.784Z,102227.00
2023-05-18T23:31:58.684Z,102232.63
2023-05-18T23:34:27.566Z,102227.53
2023-05-18T23:36:57.424Z,102224.94
2023-05-18T23:39:25.579Z,102223.63
2023-05-18T23:41:54.885Z,102225.91
2023-05-18T23:44:23.324Z,102224.94
2023-05-18T23:46:53.310Z,102231.97
2023-05-18T23:49:21.577Z,102212.38
2023-05-18T23:51:50.887Z,102215.63
2023-05-18T23:54:19.164Z,102220.81
2023-05-18T23:56:47.514Z,102217.94
2023-05-18T23:59:16.209Z,102216.72
